Main page
METAR-TAF:

METAR-TAF

Airports :

Brescia, Italy

Montichiari

latitude: 45-24-02N, longitude: 010-18-59E, elevation: 104 m

Current weather observation

The report was made 1 hour and 4 minutes ago, at 01:50 UTC
Wind 6 kt from the Northeast
Temperature 19°C
Humidity 64%
Pressure 1021 hPa
Visibility 10 km or more
no clouds below 1500 m and no cumulonimbus

METAR: LIPO 280150Z 04006KT CAVOK 19/12 Q1021

Time: 04:54 (02:54 UTC)

Forecast

The report was made 3 hours and 54 minutes ago, at 23:00 UTC
Forecast valid from 28 at 00 UTC to 28 at 24 UTC
Wind 5 kt from the East/Southeast
Visibility 10 km or more
no clouds below 1500 m and no cumulonimbus

TAF: LIPO 272300Z 2800/2824 11005KT CAVOK

Weather observations and forecasts of more than 4000 airports (METAR and TAF reports).

The available stations are represented by yellow and red dots on the map.

Hover mouse over dot to see the name of the station.

Then click to see weather observations and forecasts.

To change the map : click on the green buttons with a black cross to zoom in, on the green button with a dash to zoom out, or on the green arrows for adjacent maps.


METAR-TAF: